sensor_id;sensor_type;location;lat;lon;timestamp;temperature;humidity
6210;DHT22;3138;52.550;13.148;2023-04-25T00:00:20;8.60;99.90
6210;DHT22;3138;52.550;13.148;2023-04-25T00:02:47;8.50;99.90
6210;DHT22;3138;52.550;13.148;2023-04-25T00:05:18;8.50;99.90
6210;DHT22;3138;52.550;13.148;2023-04-25T00:07:46;8.50;99.90
6210;DHT22;3138;52.550;13.148;2023-04-25T00:10:12;8.50;99.90
6210;DHT22;3138;52.550;13.148;2023-04-25T00:12:40;8.60;99.90
6210;DHT22;3138;52.550;13.148;2023-04-25T00:15:07;8.60;99.90
6210;DHT22;3138;52.550;13.148;2023-04-25T00:17:36;8.50;98.90
6210;DHT22;3138;52.550;13.148;2023-04-25T00:20:04;8.60;99.90
6210;DHT22;3138;52.550;13.148;2023-04-25T00:22:34;8.60;97.60
6210;DHT22;3138;52.550;13.148;2023-04-25T00:25:03;8.50;99.90
6210;DHT22;3138;52.550;13.148;2023-04-25T00:27:30;8.50;92.20
6210;DHT22;3138;52.550;13.148;2023-04-25T00:29:56;8.50;96.80
6210;DHT22;3138;52.550;13.148;2023-04-25T00:32:23;8.50;85.70
6210;DHT22;3138;52.550;13.148;2023-04-25T00:34:51;8.50;51.60
6210;DHT22;3138;52.550;13.148;2023-04-25T00:37:18;8.50;52.10
6210;DHT22;3138;52.550;13.148;2023-04-25T00:39:45;8.60;93.80
6210;DHT22;3138;52.550;13.148;2023-04-25T00:42:12;8.60;44.10
6210;DHT22;3138;52.550;13.148;2023-04-25T00:44:41;8.50;41.50
6210;DHT22;3138;52.550;13.148;2023-04-25T00:47:11;8.60;48.10
6210;DHT22;3138;52.550;13.148;2023-04-25T00:49:38;8.60;59.70
6210;DHT22;3138;52.550;13.148;2023-04-25T00:52:06;8.60;71.90
6210;DHT22;3138;52.550;13.148;2023-04-25T00:54:33;8.60;97.20
6210;DHT22;3138;52.550;13.148;2023-04-25T00:56:59;8.60;65.90
6210;DHT22;3138;52.550;13.148;2023-04-25T00:59:27;8.60;54.70
6210;DHT22;3138;52.550;13.148;2023-04-25T01:01:55;8.50;52.10
6210;DHT22;3138;52.550;13.148;2023-04-25T01:04:22;8.50;46.10
6210;DHT22;3138;52.550;13.148;2023-04-25T01:06:49;8.50;45.80
6210;DHT22;3138;52.550;13.148;2023-04-25T01:09:17;8.50;29.90
6210;DHT22;3138;52.550;13.148;2023-04-25T01:11:45;8.50;40.20
6210;DHT22;3138;52.550;13.148;2023-04-25T01:14:12;8.50;55.10
6210;DHT22;3138;52.550;13.148;2023-04-25T01:16:38;8.40;65.30
6210;DHT22;3138;52.550;13.148;2023-04-25T01:19:09;8.40;57.20
6210;DHT22;3138;52.550;13.148;2023-04-25T01:21:39;8.40;57.30
6210;DHT22;3138;52.550;13.148;2023-04-25T01:24:06;8.40;40.00
6210;DHT22;3138;52.550;13.148;2023-04-25T01:26:33;8.40;71.50
6210;DHT22;3138;52.550;13.148;2023-04-25T01:29:01;8.40;51.40
6210;DHT22;3138;52.550;13.148;2023-04-25T01:31:28;8.40;35.50
6210;DHT22;3138;52.550;13.148;2023-04-25T01:33:55;8.40;29.10
6210;DHT22;3138;52.550;13.148;2023-04-25T01:36:22;8.40;34.20
6210;DHT22;3138;52.550;13.148;2023-04-25T01:38:51;8.40;58.60
6210;DHT22;3138;52.550;13.148;2023-04-25T01:41:18;8.40;75.70
6210;DHT22;3138;52.550;13.148;2023-04-25T01:43:45;8.40;58.90
6210;DHT22;3138;52.550;13.148;2023-04-25T01:46:12;8.40;94.80
6210;DHT22;3138;52.550;13.148;2023-04-25T01:48:39;8.40;96.10
6210;DHT22;3138;52.550;13.148;2023-04-25T01:51:06;8.30;99.50
6210;DHT22;3138;52.550;13.148;2023-04-25T01:53:33;8.30;99.90
6210;DHT22;3138;52.550;13.148;2023-04-25T01:56:02;8.30;99.90
6210;DHT22;3138;52.550;13.148;2023-04-25T01:58:28;8.30;99.90
6210;DHT22;3138;52.550;13.148;2023-04-25T02:00:55;8.30;99.90
6210;DHT22;3138;52.550;13.148;2023-04-25T02:03:22;8.30;99.90
6210;DHT22;3138;52.550;13.148;2023-04-25T02:05:49;8.30;99.90
6210;DHT22;3138;52.550;13.148;2023-04-25T02:08:17;8.20;99.90
6210;DHT22;3138;52.550;13.148;2023-04-25T02:10:44;8.30;99.90
6210;DHT22;3138;52.550;13.148;2023-04-25T02:13:12;8.20;99.90
6210;DHT22;3138;52.550;13.148;2023-04-25T02:15:39;8.20;99.90
6210;DHT22;3138;52.550;13.148;2023-04-25T02:18:06;8.30;99.90
6210;DHT22;3138;52.550;13.148;2023-04-25T02:20:34;8.30;99.90
6210;DHT22;3138;52.550;13.148;2023-04-25T02:23:00;8.30;99.90
6210;DHT22;3138;52.550;13.148;2023-04-25T02:25:28;8.20;99.90
6210;DHT22;3138;52.550;13.148;2023-04-25T02:27:57;8.20;99.90
6210;DHT22;3138;52.550;13.148;2023-04-25T02:30:25;8.20;99.90
6210;DHT22;3138;52.550;13.148;2023-04-25T02:32:52;8.20;99.90
6210;DHT22;3138;52.550;13.148;2023-04-25T02:35:19;8.20;99.90
6210;DHT22;3138;52.550;13.148;2023-04-25T02:37:46;8.20;99.90
6210;DHT22;3138;52.550;13.148;2023-04-25T02:40:13;8.30;99.90
6210;DHT22;3138;52.550;13.148;2023-04-25T02:42:40;8.20;99.90
6210;DHT22;3138;52.550;13.148;2023-04-25T02:45:10;8.20;99.90
6210;DHT22;3138;52.550;13.148;2023-04-25T02:47:38;8.10;99.90
6210;DHT22;3138;52.550;13.148;2023-04-25T02:50:06;8.10;99.90
6210;DHT22;3138;52.550;13.148;2023-04-25T02:52:33;8.20;99.90
6210;DHT22;3138;52.550;13.148;2023-04-25T02:55:00;8.20;99.90
6210;DHT22;3138;52.550;13.148;2023-04-25T02:57:27;8.20;99.90
6210;DHT22;3138;52.550;13.148;2023-04-25T03:00:04;8.20;99.90
6210;DHT22;3138;52.550;13.148;2023-04-25T03:02:31;8.10;99.90
6210;DHT22;3138;52.550;13.148;2023-04-25T03:05:02;8.20;99.90
6210;DHT22;3138;52.550;13.148;2023-04-25T03:07:29;8.20;99.90
6210;DHT22;3138;52.550;13.148;2023-04-25T03:09:55;8.10;99.90
6210;DHT22;3138;52.550;13.148;2023-04-25T03:12:22;8.10;99.90
6210;DHT22;3138;52.550;13.148;2023-04-25T03:14:49;8.10;99.90
6210;DHT22;3138;52.550;13.148;2023-04-25T03:17:16;8.10;99.90
6210;DHT22;3138;52.550;13.148;2023-04-25T03:19:43;8.10;99.90
6210;DHT22;3138;52.550;13.148;2023-04-25T03:22:11;8.10;99.90
6210;DHT22;3138;52.550;13.148;2023-04-25T03:24:38;8.10;99.90
6210;DHT22;3138;52.550;13.148;2023-04-25T03:27:05;8.10;99.90
6210;DHT22;3138;52.550;13.148;2023-04-25T03:29:32;8.10;99.90
6210;DHT22;3138;52.550;13.148;2023-04-25T03:31:59;8.10;99.90
6210;DHT22;3138;52.550;13.148;2023-04-25T03:34:26;8.10;99.90
6210;DHT22;3138;52.550;13.148;2023-04-25T03:36:55;8.10;99.90
6210;DHT22;3138;52.550;13.148;2023-04-25T03:39:26;8.00;99.90
6210;DHT22;3138;52.550;13.148;2023-04-25T03:41:52;8.00;99.90
6210;DHT22;3138;52.550;13.148;2023-04-25T03:44:19;8.00;99.90
6210;DHT22;3138;52.550;13.148;2023-04-25T03:46:46;8.00;99.90
6210;DHT22;3138;52.550;13.148;2023-04-25T03:49:13;8.00;99.90
6210;DHT22;3138;52.550;13.148;2023-04-25T03:51:40;8.00;99.90
6210;DHT22;3138;52.550;13.148;2023-04-25T03:54:07;8.00;99.90
6210;DHT22;3138;52.550;13.148;2023-04-25T03:56:35;8.00;99.90
6210;DHT22;3138;52.550;13.148;2023-04-25T03:59:02;8.00;99.90
6210;DHT22;3138;52.550;13.148;2023-04-25T04:01:29;8.00;99.90
6210;DHT22;3138;52.550;13.148;2023-04-25T04:03:56;8.00;99.90
6210;DHT22;3138;52.550;13.148;2023-04-25T04:06:22;8.00;99.90
6210;DHT22;3138;52.550;13.148;2023-04-25T04:08:49;8.00;99.90
6210;DHT22;3138;52.550;13.148;2023-04-25T04:11:16;8.00;99.90
6210;DHT22;3138;52.550;13.148;2023-04-25T04:13:44;8.00;99.90
6210;DHT22;3138;52.550;13.148;2023-04-25T04:16:11;8.00;99.90
6210;DHT22;3138;52.550;13.148;2023-04-25T04:18:38;8.00;99.90
6210;DHT22;3138;52.550;13.148;2023-04-25T04:21:05;8.00;99.90
6210;DHT22;3138;52.550;13.148;2023-04-25T04:23:32;8.00;99.90
6210;DHT22;3138;52.550;13.148;2023-04-25T04:25:59;8.10;99.90
6210;DHT22;3138;52.550;13.148;2023-04-25T04:28:26;8.00;99.90
6210;DHT22;3138;52.550;13.148;2023-04-25T04:30:54;8.00;99.90
6210;DHT22;3138;52.550;13.148;2023-04-25T04:33:21;8.10;99.90
6210;DHT22;3138;52.550;13.148;2023-04-25T04:35:50;8.10;1.00
6210;DHT22;3138;52.550;13.148;2023-04-25T04:38:19;8.10;99.90
6210;DHT22;3138;52.550;13.148;2023-04-25T04:40:46;8.10;99.90
6210;DHT22;3138;52.550;13.148;2023-04-25T04:43:13;8.10;99.90
6210;DHT22;3138;52.550;13.148;2023-04-25T04:45:42;8.10;99.90
6210;DHT22;3138;52.550;13.148;2023-04-25T04:48:11;8.10;99.90
6210;DHT22;3138;52.550;13.148;2023-04-25T04:50:39;8.20;99.90
6210;DHT22;3138;52.550;13.148;2023-04-25T04:53:07;8.20;99.90
6210;DHT22;3138;52.550;13.148;2023-04-25T04:55:34;8.20;99.90
6210;DHT22;3138;52.550;13.148;2023-04-25T04:58:01;8.30;99.90
6210;DHT22;3138;52.550;13.148;2023-04-25T05:00:28;8.30;99.90
6210;DHT22;3138;52.550;13.148;2023-04-25T05:02:55;8.20;99.90
6210;DHT22;3138;52.550;13.148;2023-04-25T05:05:23;8.30;99.90
6210;DHT22;3138;52.550;13.148;2023-04-25T05:07:50;8.30;99.90
6210;DHT22;3138;52.550;13.148;2023-04-25T05:10:17;8.40;99.90
6210;DHT22;3138;52.550;13.148;2023-04-25T05:12:44;8.30;99.90
6210;DHT22;3138;52.550;13.148;2023-04-25T05:15:11;8.30;1.00
6210;DHT22;3138;52.550;13.148;2023-04-25T05:17:38;8.30;1.00
6210;DHT22;3138;52.550;13.148;2023-04-25T05:20:06;8.30;1.00
6210;DHT22;3138;52.550;13.148;2023-04-25T05:22:36;8.30;1.00
6210;DHT22;3138;52.550;13.148;2023-04-25T05:25:03;8.30;1.00
6210;DHT22;3138;52.550;13.148;2023-04-25T05:27:30;8.30;1.00
6210;DHT22;3138;52.550;13.148;2023-04-25T05:29:57;8.30;1.00
6210;DHT22;3138;52.550;13.148;2023-04-25T05:32:24;8.30;1.00
6210;DHT22;3138;52.550;13.148;2023-04-25T05:34:51;8.30;1.00
6210;DHT22;3138;52.550;13.148;2023-04-25T05:37:18;8.30;1.00
6210;DHT22;3138;52.550;13.148;2023-04-25T05:39:46;8.30;1.00
6210;DHT22;3138;52.550;13.148;2023-04-25T05:42:13;8.30;1.00
6210;DHT22;3138;52.550;13.148;2023-04-25T05:44:40;8.40;1.00
6210;DHT22;3138;52.550;13.148;2023-04-25T05:47:07;8.50;1.00
6210;DHT22;3138;52.550;13.148;2023-04-25T05:49:34;8.50;1.00
6210;DHT22;3138;52.550;13.148;2023-04-25T05:52:00;8.50;1.00
6210;DHT22;3138;52.550;13.148;2023-04-25T05:54:27;8.50;1.00
6210;DHT22;3138;52.550;13.148;2023-04-25T05:56:56;8.40;1.00
6210;DHT22;3138;52.550;13.148;2023-04-25T05:59:23;8.50;1.00
6210;DHT22;3138;52.550;13.148;2023-04-25T06:01:50;8.70;1.00
6210;DHT22;3138;52.550;13.148;2023-04-25T06:04:18;8.70;1.00
6210;DHT22;3138;52.550;13.148;2023-04-25T06:06:44;8.60;1.00
6210;DHT22;3138;52.550;13.148;2023-04-25T06:09:11;8.70;1.00
6210;DHT22;3138;52.550;13.148;2023-04-25T06:11:38;8.80;1.00
6210;DHT22;3138;52.550;13.148;2023-04-25T06:14:06;8.80;1.00
6210;DHT22;3138;52.550;13.148;2023-04-25T06:16:33;8.80;1.00
6210;DHT22;3138;52.550;13.148;2023-04-25T06:19:00;8.90;1.00
6210;DHT22;3138;52.550;13.148;2023-04-25T06:21:27;8.90;1.00
6210;DHT22;3138;52.550;13.148;2023-04-25T06:23:54;8.80;1.00
6210;DHT22;3138;52.550;13.148;2023-04-25T06:26:21;8.70;1.00
6210;DHT22;3138;52.550;13.148;2023-04-25T06:28:47;8.60;1.00
6210;DHT22;3138;52.550;13.148;2023-04-25T06:31:16;8.60;1.00
6210;DHT22;3138;52.550;13.148;2023-04-25T06:33:42;8.60;1.00
6210;DHT22;3138;52.550;13.148;2023-04-25T06:36:09;8.50;1.00
6210;DHT22;3138;52.550;13.148;2023-04-25T06:38:36;8.60;1.00
6210;DHT22;3138;52.550;13.148;2023-04-25T06:41:03;8.50;1.00
6210;DHT22;3138;52.550;13.148;2023-04-25T06:43:30;8.40;1.00
6210;DHT22;3138;52.550;13.148;2023-04-25T06:45:58;8.50;1.00
6210;DHT22;3138;52.550;13.148;2023-04-25T06:48:27;8.50;1.00
6210;DHT22;3138;52.550;13.148;2023-04-25T06:50:54;8.50;1.00
6210;DHT22;3138;52.550;13.148;2023-04-25T06:53:22;8.50;1.00
6210;DHT22;3138;52.550;13.148;2023-04-25T06:55:48;8.40;1.00
6210;DHT22;3138;52.550;13.148;2023-04-25T06:58:15;8.30;99.90
6210;DHT22;3138;52.550;13.148;2023-04-25T07:00:42;8.20;99.90
6210;DHT22;3138;52.550;13.148;2023-04-25T07:03:11;8.30;99.90
6210;DHT22;3138;52.550;13.148;2023-04-25T07:05:39;8.40;99.90
6210;DHT22;3138;52.550;13.148;2023-04-25T07:08:06;8.50;99.90
6210;DHT22;3138;52.550;13.148;2023-04-25T07:10:33;8.60;1.00
6210;DHT22;3138;52.550;13.148;2023-04-25T07:13:00;8.40;1.00
6210;DHT22;3138;52.550;13.148;2023-04-25T07:15:27;8.60;1.00
6210;DHT22;3138;52.550;13.148;2023-04-25T07:17:54;8.70;99.90
6210;DHT22;3138;52.550;13.148;2023-04-25T07:20:21;8.70;99.90
6210;DHT22;3138;52.550;13.148;2023-04-25T07:22:49;8.70;99.90
6210;DHT22;3138;52.550;13.148;2023-04-25T07:25:16;8.70;99.90
6210;DHT22;3138;52.550;13.148;2023-04-25T07:27:43;8.90;99.90
6210;DHT22;3138;52.550;13.148;2023-04-25T07:30:11;8.60;29.80
6210;DHT22;3138;52.550;13.148;2023-04-25T07:32:38;8.70;1.00
6210;DHT22;3138;52.550;13.148;2023-04-25T07:35:06;8.60;1.00
6210;DHT22;3138;52.550;13.148;2023-04-25T07:37:33;8.60;1.00
6210;DHT22;3138;52.550;13.148;2023-04-25T07:40:02;8.70;1.00
6210;DHT22;3138;52.550;13.148;2023-04-25T07:42:30;9.00;1.00
6210;DHT22;3138;52.550;13.148;2023-04-25T07:44:57;9.00;1.00
6210;DHT22;3138;52.550;13.148;2023-04-25T07:47:24;9.10;1.00
6210;DHT22;3138;52.550;13.148;2023-04-25T07:49:51;9.30;1.00
6210;DHT22;3138;52.550;13.148;2023-04-25T07:52:18;9.60;1.00
6210;DHT22;3138;52.550;13.148;2023-04-25T07:54:45;9.30;1.00
6210;DHT22;3138;52.550;13.148;2023-04-25T07:57:14;9.20;1.00
6210;DHT22;3138;52.550;13.148;2023-04-25T07:59:42;9.00;1.00
6210;DHT22;3138;52.550;13.148;2023-04-25T08:02:09;9.00;99.90
6210;DHT22;3138;52.550;13.148;2023-04-25T08:04:36;9.10;99.90
6210;DHT22;3138;52.550;13.148;2023-04-25T08:07:03;9.10;99.90
6210;DHT22;3138;52.550;13.148;2023-04-25T08:09:29;9.30;99.90
6210;DHT22;3138;52.550;13.148;2023-04-25T08:12:00;9.30;99.90
6210;DHT22;3138;52.550;13.148;2023-04-25T08:14:30;9.30;99.90
6210;DHT22;3138;52.550;13.148;2023-04-25T08:17:01;9.50;99.90
6210;DHT22;3138;52.550;13.148;2023-04-25T08:19:28;9.40;99.90
6210;DHT22;3138;52.550;13.148;2023-04-25T08:21:55;9.60;99.90
6210;DHT22;3138;52.550;13.148;2023-04-25T08:24:22;9.60;99.90
6210;DHT22;3138;52.550;13.148;2023-04-25T08:26:49;9.90;99.90
6210;DHT22;3138;52.550;13.148;2023-04-25T08:29:16;9.90;99.90
6210;DHT22;3138;52.550;13.148;2023-04-25T08:31:46;9.90;61.10
6210;DHT22;3138;52.550;13.148;2023-04-25T08:34:13;9.90;41.80
6210;DHT22;3138;52.550;13.148;2023-04-25T08:36:40;10.10;42.20
6210;DHT22;3138;52.550;13.148;2023-04-25T08:39:07;10.60;42.00
6210;DHT22;3138;52.550;13.148;2023-04-25T08:41:35;10.60;16.80
6210;DHT22;3138;52.550;13.148;2023-04-25T08:44:03;10.10;1.00
6210;DHT22;3138;52.550;13.148;2023-04-25T08:46:30;10.30;1.00
6210;DHT22;3138;52.550;13.148;2023-04-25T08:49:01;10.70;1.00
6210;DHT22;3138;52.550;13.148;2023-04-25T08:51:31;10.50;1.00
6210;DHT22;3138;52.550;13.148;2023-04-25T08:54:08;10.50;1.00
6210;DHT22;3138;52.550;13.148;2023-04-25T08:56:37;10.50;1.00
6210;DHT22;3138;52.550;13.148;2023-04-25T08:59:04;11.10;1.00
6210;DHT22;3138;52.550;13.148;2023-04-25T09:01:33;11.40;1.00
6210;DHT22;3138;52.550;13.148;2023-04-25T09:04:03;11.20;1.00
6210;DHT22;3138;52.550;13.148;2023-04-25T09:06:30;11.20;1.00
6210;DHT22;3138;52.550;13.148;2023-04-25T09:09:02;11.50;1.00
6210;DHT22;3138;52.550;13.148;2023-04-25T09:11:29;11.70;1.00
6210;DHT22;3138;52.550;13.148;2023-04-25T09:14:10;11.20;1.00
6210;DHT22;3138;52.550;13.148;2023-04-25T09:17:00;11.30;1.00
6210;DHT22;3138;52.550;13.148;2023-04-25T09:19:30;10.60;1.00
6210;DHT22;3138;52.550;13.148;2023-04-25T09:21:59;10.60;1.00
6210;DHT22;3138;52.550;13.148;2023-04-25T09:24:33;10.50;1.00
6210;DHT22;3138;52.550;13.148;2023-04-25T09:27:03;10.40;1.00
6210;DHT22;3138;52.550;13.148;2023-04-25T09:29:31;10.40;1.00
6210;DHT22;3138;52.550;13.148;2023-04-25T09:32:17;10.20;1.00
6210;DHT22;3138;52.550;13.148;2023-04-25T09:34:47;10.20;1.00
6210;DHT22;3138;52.550;13.148;2023-04-25T09:37:18;10.30;1.00
6210;DHT22;3138;52.550;13.148;2023-04-25T09:39:46;10.30;1.00
6210;DHT22;3138;52.550;13.148;2023-04-25T09:42:13;10.70;1.00
6210;DHT22;3138;52.550;13.148;2023-04-25T09:44:45;11.30;1.00
6210;DHT22;3138;52.550;13.148;2023-04-25T09:47:13;11.80;1.00
6210;DHT22;3138;52.550;13.148;2023-04-25T09:49:43;11.30;1.00
6210;DHT22;3138;52.550;13.148;2023-04-25T09:52:14;11.40;1.00
6210;DHT22;3138;52.550;13.148;2023-04-25T09:54:41;11.70;1.00
6210;DHT22;3138;52.550;13.148;2023-04-25T09:57:11;11.90;1.00
6210;DHT22;3138;52.550;13.148;2023-04-25T09:59:42;12.30;1.00
6210;DHT22;3138;52.550;13.148;2023-04-25T10:02:11;11.70;1.00
6210;DHT22;3138;52.550;13.148;2023-04-25T10:04:38;11.30;1.00
6210;DHT22;3138;52.550;13.148;2023-04-25T10:07:06;11.00;1.00
6210;DHT22;3138;52.550;13.148;2023-04-25T10:09:36;10.80;1.00
6210;DHT22;3138;52.550;13.148;2023-04-25T10:12:05;10.50;1.00
6210;DHT22;3138;52.550;13.148;2023-04-25T10:14:32;10.30;1.00
6210;DHT22;3138;52.550;13.148;2023-04-25T10:17:00;10.60;1.00
6210;DHT22;3138;52.550;13.148;2023-04-25T10:19:27;10.80;1.00
6210;DHT22;3138;52.550;13.148;2023-04-25T10:22:02;10.90;1.00
6210;DHT22;3138;52.550;13.148;2023-04-25T10:24:30;10.90;1.00
6210;DHT22;3138;52.550;13.148;2023-04-25T10:26:58;11.20;1.00
6210;DHT22;3138;52.550;13.148;2023-04-25T10:29:26;10.90;1.00
6210;DHT22;3138;52.550;13.148;2023-04-25T10:31:53;10.70;1.00
6210;DHT22;3138;52.550;13.148;2023-04-25T10:34:24;10.80;1.00
6210;DHT22;3138;52.550;13.148;2023-04-25T10:36:53;11.10;1.00
6210;DHT22;3138;52.550;13.148;2023-04-25T10:39:24;10.90;1.00
6210;DHT22;3138;52.550;13.148;2023-04-25T10:41:55;10.90;1.00
6210;DHT22;3138;52.550;13.148;2023-04-25T10:44:26;11.00;1.00
6210;DHT22;3138;52.550;13.148;2023-04-25T10:46:55;11.20;1.00
6210;DHT22;3138;52.550;13.148;2023-04-25T10:49:31;11.80;1.00
6210;DHT22;3138;52.550;13.148;2023-04-25T10:52:12;11.10;1.00
6210;DHT22;3138;52.550;13.148;2023-04-25T10:54:46;10.80;1.00
6210;DHT22;3138;52.550;13.148;2023-04-25T10:57:34;10.20;1.00
6210;DHT22;3138;52.550;13.148;2023-04-25T11:00:08;9.90;1.00
6210;DHT22;3138;52.550;13.148;2023-04-25T11:02:46;9.80;1.00
6210;DHT22;3138;52.550;13.148;2023-04-25T11:05:22;9.70;1.00
6210;DHT22;3138;52.550;13.148;2023-04-25T11:07:53;9.70;1.00
6210;DHT22;3138;52.550;13.148;2023-04-25T11:10:25;9.90;1.00
6210;DHT22;3138;52.550;13.148;2023-04-25T11:12:52;9.80;1.00
6210;DHT22;3138;52.550;13.148;2023-04-25T11:15:20;9.90;1.00
6210;DHT22;3138;52.550;13.148;2023-04-25T11:17:47;10.00;1.00
6210;DHT22;3138;52.550;13.148;2023-04-25T11:20:14;10.10;1.00
6210;DHT22;3138;52.550;13.148;2023-04-25T11:22:41;10.30;1.00
6210;DHT22;3138;52.550;13.148;2023-04-25T11:25:11;10.20;1.00
6210;DHT22;3138;52.550;13.148;2023-04-25T11:27:39;10.10;1.00
6210;DHT22;3138;52.550;13.148;2023-04-25T11:30:16;10.20;1.00
6210;DHT22;3138;52.550;13.148;2023-04-25T11:32:45;10.40;1.00
6210;DHT22;3138;52.550;13.148;2023-04-25T11:35:12;10.40;1.00
6210;DHT22;3138;52.550;13.148;2023-04-25T11:37:39;10.60;1.00
6210;DHT22;3138;52.550;13.148;2023-04-25T11:40:07;10.60;1.00
6210;DHT22;3138;52.550;13.148;2023-04-25T11:42:36;10.90;1.00
6210;DHT22;3138;52.550;13.148;2023-04-25T11:45:04;10.90;1.00
6210;DHT22;3138;52.550;13.148;2023-04-25T11:47:32;11.30;1.00
6210;DHT22;3138;52.550;13.148;2023-04-25T11:50:02;10.90;1.00
6210;DHT22;3138;52.550;13.148;2023-04-25T11:52:40;10.60;1.00
6210;DHT22;3138;52.550;13.148;2023-04-25T11:55:08;10.30;1.00
6210;DHT22;3138;52.550;13.148;2023-04-25T11:57:37;10.20;1.00
6210;DHT22;3138;52.550;13.148;2023-04-25T12:00:13;10.10;1.00
6210;DHT22;3138;52.550;13.148;2023-04-25T12:02:41;10.00;1.00
6210;DHT22;3138;52.550;13.148;2023-04-25T12:05:11;10.20;1.00
6210;DHT22;3138;52.550;13.148;2023-04-25T12:07:38;10.40;1.00
6210;DHT22;3138;52.550;13.148;2023-04-25T12:10:07;10.50;1.00
6210;DHT22;3138;52.550;13.148;2023-04-25T12:12:35;10.50;1.00
6210;DHT22;3138;52.550;13.148;2023-04-25T12:15:10;10.70;1.00
6210;DHT22;3138;52.550;13.148;2023-04-25T12:17:38;10.60;1.00
6210;DHT22;3138;52.550;13.148;2023-04-25T12:20:12;10.50;1.00
6210;DHT22;3138;52.550;13.148;2023-04-25T12:22:41;10.50;1.00
6210;DHT22;3138;52.550;13.148;2023-04-25T12:25:10;10.50;1.00
6210;DHT22;3138;52.550;13.148;2023-04-25T12:27:37;10.40;1.00
6210;DHT22;3138;52.550;13.148;2023-04-25T12:30:06;10.20;1.00
6210;DHT22;3138;52.550;13.148;2023-04-25T12:32:37;10.30;1.00
6210;DHT22;3138;52.550;13.148;2023-04-25T12:35:05;10.30;1.00
6210;DHT22;3138;52.550;13.148;2023-04-25T12:37:33;10.40;1.00
6210;DHT22;3138;52.550;13.148;2023-04-25T12:40:00;10.40;1.00
6210;DHT22;3138;52.550;13.148;2023-04-25T12:42:28;10.40;1.00
6210;DHT22;3138;52.550;13.148;2023-04-25T12:44:55;10.40;1.00
6210;DHT22;3138;52.550;13.148;2023-04-25T12:47:22;10.70;1.00
6210;DHT22;3138;52.550;13.148;2023-04-25T12:49:49;11.00;1.00
6210;DHT22;3138;52.550;13.148;2023-04-25T12:52:16;11.00;1.00
6210;DHT22;3138;52.550;13.148;2023-04-25T12:54:44;11.30;1.00
6210;DHT22;3138;52.550;13.148;2023-04-25T12:57:10;11.80;1.00
6210;DHT22;3138;52.550;13.148;2023-04-25T12:59:37;11.80;1.00
6210;DHT22;3138;52.550;13.148;2023-04-25T13:02:04;11.60;1.00
6210;DHT22;3138;52.550;13.148;2023-04-25T13:04:31;11.30;1.00
6210;DHT22;3138;52.550;13.148;2023-04-25T13:06:58;11.40;1.00
6210;DHT22;3138;52.550;13.148;2023-04-25T13:09:25;11.40;1.00
6210;DHT22;3138;52.550;13.148;2023-04-25T13:11:53;11.20;1.00
6210;DHT22;3138;52.550;13.148;2023-04-25T13:14:20;11.10;1.00
6210;DHT22;3138;52.550;13.148;2023-04-25T13:16:47;11.00;1.00
6210;DHT22;3138;52.550;13.148;2023-04-25T13:19:14;10.60;1.00
6210;DHT22;3138;52.550;13.148;2023-04-25T13:21:40;10.70;1.00
6210;DHT22;3138;52.550;13.148;2023-04-25T13:24:07;10.60;1.00
6210;DHT22;3138;52.550;13.148;2023-04-25T13:26:34;10.60;1.00
6210;DHT22;3138;52.550;13.148;2023-04-25T13:29:02;10.60;1.00
6210;DHT22;3138;52.550;13.148;2023-04-25T13:31:29;11.00;1.00
6210;DHT22;3138;52.550;13.148;2023-04-25T13:33:56;11.10;1.00
6210;DHT22;3138;52.550;13.148;2023-04-25T13:36:24;11.40;1.00
6210;DHT22;3138;52.550;13.148;2023-04-25T13:38:51;11.40;1.00
6210;DHT22;3138;52.550;13.148;2023-04-25T13:41:18;11.20;1.00
6210;DHT22;3138;52.550;13.148;2023-04-25T13:43:45;11.00;1.00
6210;DHT22;3138;52.550;13.148;2023-04-25T13:46:15;11.00;1.00
6210;DHT22;3138;52.550;13.148;2023-04-25T13:48:42;10.90;1.00
6210;DHT22;3138;52.550;13.148;2023-04-25T13:51:13;10.60;1.00
6210;DHT22;3138;52.550;13.148;2023-04-25T13:53:41;10.30;1.00
6210;DHT22;3138;52.550;13.148;2023-04-25T13:56:07;10.10;1.00
6210;DHT22;3138;52.550;13.148;2023-04-25T13:58:34;10.10;1.00
6210;DHT22;3138;52.550;13.148;2023-04-25T14:01:01;10.20;1.00
6210;DHT22;3138;52.550;13.148;2023-04-25T14:03:30;10.20;1.00
6210;DHT22;3138;52.550;13.148;2023-04-25T14:05:57;10.10;99.90
6210;DHT22;3138;52.550;13.148;2023-04-25T14:08:23;10.00;99.90
6210;DHT22;3138;52.550;13.148;2023-04-25T14:10:51;10.10;1.00
6210;DHT22;3138;52.550;13.148;2023-04-25T14:13:18;10.10;1.00
6210;DHT22;3138;52.550;13.148;2023-04-25T14:15:45;10.20;1.00
6210;DHT22;3138;52.550;13.148;2023-04-25T14:18:12;10.50;1.00
6210;DHT22;3138;52.550;13.148;2023-04-25T14:20:40;10.10;1.00
6210;DHT22;3138;52.550;13.148;2023-04-25T14:23:07;10.30;1.00
6210;DHT22;3138;52.550;13.148;2023-04-25T14:25:34;10.50;1.00
6210;DHT22;3138;52.550;13.148;2023-04-25T14:28:01;10.60;1.00
6210;DHT22;3138;52.550;13.148;2023-04-25T14:30:28;10.60;1.00
6210;DHT22;3138;52.550;13.148;2023-04-25T14:32:55;10.50;1.00
6210;DHT22;3138;52.550;13.148;2023-04-25T14:35:22;10.10;1.00
6210;DHT22;3138;52.550;13.148;2023-04-25T14:37:50;9.90;1.00
6210;DHT22;3138;52.550;13.148;2023-04-25T14:40:17;9.80;1.00
6210;DHT22;3138;52.550;13.148;2023-04-25T14:42:47;9.90;1.00
6210;DHT22;3138;52.550;13.148;2023-04-25T14:45:14;9.70;1.00
6210;DHT22;3138;52.550;13.148;2023-04-25T14:47:41;9.60;1.00
6210;DHT22;3138;52.550;13.148;2023-04-25T14:50:08;9.60;1.00
6210;DHT22;3138;52.550;13.148;2023-04-25T14:52:35;9.50;1.00
6210;DHT22;3138;52.550;13.148;2023-04-25T14:55:04;9.50;1.00
6210;DHT22;3138;52.550;13.148;2023-04-25T14:57:31;9.70;1.00
6210;DHT22;3138;52.550;13.148;2023-04-25T14:59:58;9.80;1.00
6210;DHT22;3138;52.550;13.148;2023-04-25T15:02:25;9.90;1.00
6210;DHT22;3138;52.550;13.148;2023-04-25T15:04:52;9.90;1.00
6210;DHT22;3138;52.550;13.148;2023-04-25T15:07:19;10.00;1.00
6210;DHT22;3138;52.550;13.148;2023-04-25T15:09:47;10.10;1.00
6210;DHT22;3138;52.550;13.148;2023-04-25T15:12:16;10.40;1.00
6210;DHT22;3138;52.550;13.148;2023-04-25T15:14:44;10.40;1.00
6210;DHT22;3138;52.550;13.148;2023-04-25T15:17:11;10.60;1.00
6210;DHT22;3138;52.550;13.148;2023-04-25T15:19:39;10.60;1.00
6210;DHT22;3138;52.550;13.148;2023-04-25T15:22:06;10.50;1.00
6210;DHT22;3138;52.550;13.148;2023-04-25T15:24:33;10.20;1.00
6210;DHT22;3138;52.550;13.148;2023-04-25T15:27:00;10.20;1.00
6210;DHT22;3138;52.550;13.148;2023-04-25T15:29:29;10.20;1.00
6210;DHT22;3138;52.550;13.148;2023-04-25T15:31:56;10.10;1.00
6210;DHT22;3138;52.550;13.148;2023-04-25T15:34:23;10.10;1.00
6210;DHT22;3138;52.550;13.148;2023-04-25T15:36:50;10.10;1.00
6210;DHT22;3138;52.550;13.148;2023-04-25T15:39:17;10.10;1.00
6210;DHT22;3138;52.550;13.148;2023-04-25T15:41:44;10.20;1.00
6210;DHT22;3138;52.550;13.148;2023-04-25T15:44:10;9.90;1.00
6210;DHT22;3138;52.550;13.148;2023-04-25T15:46:39;10.00;1.00
6210;DHT22;3138;52.550;13.148;2023-04-25T15:49:05;9.90;1.00
6210;DHT22;3138;52.550;13.148;2023-04-25T15:51:32;9.80;1.00
6210;DHT22;3138;52.550;13.148;2023-04-25T15:53:59;9.80;1.00
6210;DHT22;3138;52.550;13.148;2023-04-25T15:56:28;9.70;1.00
6210;DHT22;3138;52.550;13.148;2023-04-25T15:58:55;9.70;1.00
6210;DHT22;3138;52.550;13.148;2023-04-25T16:01:22;9.50;1.00
6210;DHT22;3138;52.550;13.148;2023-04-25T16:03:51;9.40;99.90
6210;DHT22;3138;52.550;13.148;2023-04-25T16:06:18;9.30;99.90
6210;DHT22;3138;52.550;13.148;2023-04-25T16:08:45;9.30;99.90